Latest Weather Observations for Camden

IDN60801

Issued at 8:42 pm EDT Monday 27 January 2020 (issued every 10 minutes, with the page automatically refreshed every 10 minutes)

About weather observations | Map of weather stations | Latest weather observations for NSW | Other Formats
Station Details ID: 068192 Name: CAMDEN AIRPORT AWS Lat: -34.04 Lon: 150.69 Height: 73.9 m
Data from the previous 72 hours. | See also: Recent months at Camden
Date/Time
EDT
Temp
°C
App
Temp
°C
Dew
Point
°C
Rel
Hum
%
Delta-T
°C
Wind Press
QNH
hPa
Press
MSL
hPa
Rain since
9am
mm
Dir  Spd
km/h
Gust
km/h
Spd
kts
Gust
kts
27/08:30pm 25.5 28.6 21.4 78 2.7 ENE 7 13 4 7 1012.5 1012.2 0.0
27/08:00pm 26.0 28.2 21.2 75 3.2 ENE 11 19 6 10 1011.7 1011.4 0.0
27/07:30pm 27.0 29.0 20.8 69 4.1 ENE 11 17 6 9 1011.6 1011.3 0.0
27/07:00pm 27.9 28.9 21.0 66 4.6 NE 17 22 9 12 1011.0 1010.7 0.0
27/06:30pm 28.3 30.1 21.1 65 4.8 ENE 13 19 7 10 1010.7 1010.4 0.0
27/06:00pm 28.9 29.1 20.6 61 5.5 ENE 20 26 11 14 1010.4 1010.1 0.0
27/05:30pm 30.0 30.5 20.8 57 6.1 ENE 19 24 10 13 1010.7 1010.4 0.0
27/05:00pm 30.6 31.2 21.1 57 6.4 E 19 28 10 15 1010.7 1010.4 0.0
27/04:30pm 31.4 32.8 21.0 54 7.0 ENE 15 22 8 12 1010.8 1010.5 0.0
27/04:00pm 31.2 30.8 20.2 52 7.3 NE 22 30 12 16 1010.9 1010.6 0.0
27/03:30pm 31.4 31.4 21.0 54 7.0 NE 22 33 12 18 1011.0 1010.7 0.0
27/03:00pm 32.3 32.8 21.2 52 7.5 NNE 20 28 11 15 1011.1 1010.8 0.0
27/02:30pm 31.7 32.5 20.6 51 7.4 ENE 17 30 9 16 1011.4 1011.1 0.0
27/02:00pm 32.2 33.8 20.8 51 7.6 NNE 13 20 7 11 1011.8 1011.5 0.0
27/01:30pm 30.7 31.9 20.0 52 7.1 NE 13 20 7 11 1012.2 1011.9 0.0
27/01:00pm 31.7 34.3 21.2 53 7.1 ESE 9 13 5 7 1012.6 1012.3 0.0
27/12:30pm 30.8 34.1 20.7 55 6.7 ESE 4 11 2 6 1013.1 1012.8 0.0
27/12:00pm 29.6 32.4 20.5 58 6.0 NNW 6 9 3 5 1013.5 1013.2 0.0
27/11:30am 28.4 30.9 19.9 60 5.6 NW 6 9 3 5 1013.9 1013.6 0.0
27/11:00am 28.4 31.2 20.4 62 5.3 SSW 6 11 3 6 1014.2 1013.9 0.0
27/10:30am 27.8 30.1 19.8 61 5.2 SSW 7 17 4 9 1014.4 1014.1 0.0
27/10:00am 26.9 29.5 20.5 68 4.2 SSW 7 15 4 8 1014.7 1014.4 0.0
27/09:30am 26.1 28.8 19.5 67 4.3 SSE 4 11 2 6 1014.9 1014.6 0.0
27/09:00am 25.5 27.2 19.4 69 3.9 SSW 9 13 5 7 1015.0 1014.7 0.0
27/08:30am 25.0 26.7 19.4 71 3.6 S 9 13 5 7 1014.9 1014.6 0.0
27/08:00am 24.9 26.8 19.7 73 3.4 SSW 9 13 5 7 1014.8 1014.5 0.0
27/07:30am 24.1 27.0 19.8 77 2.8 SSW 4 11 2 6 1014.8 1014.5 0.0
27/07:00am 23.6 27.4 20.1 81 2.3 CALM 0 0 0 0 1014.6 1014.3 0.0
27/06:30am 23.7 27.4 20.0 80 2.4 CALM 0 0 0 0 1014.3 1014.0 0.0
27/06:11am 23.7 26.9 19.8 79 2.5 S 2 7 1 4 1014.2 1013.9 0.0
27/06:00am 23.7 26.0 19.8 79 2.5 SSW 7 9 4 5 1014.1 1013.8 0.0
27/05:30am 23.7 25.2 19.8 79 2.5 S 11 17 6 9 1013.8 1013.5 0.0
27/05:00am 23.8 25.3 19.7 78 2.6 S 11 17 6 9 1013.6 1013.3 0.0
27/04:54am 23.9 25.0 19.6 77 2.8 S 13 20 7 11 1013.5 1013.2 0.0
27/04:30am 23.9 24.9 19.4 76 2.9 SSW 13 17 7 9 1013.5 1013.2 0.0
27/04:00am 23.9 24.9 19.4 76 2.9 SSW 13 19 7 10 1013.6 1013.3 0.0
27/03:30am 23.9 24.0 19.2 75 3.0 SSW 17 22 9 12 1013.7 1013.4 0.0
27/03:00am 23.9 24.0 19.2 75 3.0 SSW 17 26 9 14 1013.5 1013.2 0.0
27/02:30am 24.0 23.7 19.1 74 3.1 SSW 19 24 10 13 1013.4 1013.1 0.0
27/02:00am 24.1 24.7 19.4 75 3.0 SSW 15 20 8 11 1013.3 1013.0 0.0
27/01:30am 24.3 23.3 19.6 75 3.0 S 24 33 13 18 1013.0 1012.7 0.0
27/01:00am 24.7 24.2 20.0 75 3.1 SSE 22 32 12 17 1012.8 1012.5 0.0
27/12:30am 26.0 27.4 21.0 74 3.3 SSE 15 20 8 11 1013.0 1012.7 0.0
27/12:00am 26.6 29.3 20.2 68 4.2 E 6 11 3 6 1012.6 1012.3 0.0
 
Date/Time
EDT
Temp
°C
App
Temp
°C
Dew
Point
°C
Rel
Hum
%
Delta-T
°C
Wind Press
QNH
hPa
Press
MSL
hPa
Rain since
9am
mm
Dir  Spd
km/h
Gust
km/h
Spd
kts
Gust
kts
26/11:30pm 26.6 28.3 20.2 68 4.2 SSE 11 15 6 8 1012.7 1012.4 0.0
26/11:00pm 26.4 29.3 19.8 67 4.3 N 4 9 2 5 1011.9 1011.6 0.0
26/10:30pm 27.4 31.0 19.7 63 5.0 CALM 0 6 0 3 1011.8 1011.5 0.0
26/10:00pm 27.4 29.8 20.0 64 4.8 ENE 7 9 4 5 1011.5 1011.2 0.0
26/09:30pm 27.8 30.2 20.1 63 5.1 NE 7 11 4 6 1011.3 1011.0 0.0
26/09:00pm 28.8 30.8 20.0 59 5.8 NNE 9 13 5 7 1011.0 1010.7 0.0
26/08:30pm 29.2 29.6 19.8 57 6.2 NNE 17 24 9 13 1010.9 1010.6 0.0
26/08:00pm 30.3 28.9 20.5 55 6.5 NE 28 43 15 23 1010.4 1010.1 0.0
26/07:58pm 30.4 29.8 20.6 55 6.5 NE 24 43 13 23 1010.3 1010.0 0.0
26/07:30pm 31.1 31.9 20.7 54 6.9 ENE 17 24 9 13 1009.4 1009.1 0.0
26/07:00pm 31.9 32.5 21.1 52 7.3 ENE 19 26 10 14 1008.9 1008.6 0.0
26/06:30pm 32.1 32.4 19.7 48 8.2 NE 17 24 9 13 1008.2 1007.9 0.0
26/06:00pm 33.7 33.0 18.2 39 10.1 NE 19 26 10 14 1007.8 1007.5 0.0
26/05:30pm 34.4 34.5 20.0 42 9.6 NE 19 24 10 13 1007.7 1007.4 0.0
26/05:00pm 33.8 34.2 20.9 46 8.7 ENE 20 33 11 18 1007.9 1007.6 0.0
26/04:30pm 33.3 33.8 20.1 45 8.8 ESE 17 24 9 13 1007.8 1007.5 0.0
26/04:00pm 31.6 34.9 19.9 50 7.8 SE 2 9 1 5 1008.0 1007.7 0.0
26/03:30pm 29.8 29.0 19.2 53 6.9 S 22 35 12 19 1008.3 1008.0 0.0
26/03:00pm 32.5 29.3 17.2 40 9.8 W 30 46 16 25 1008.6 1008.3 0.0
26/02:50pm 34.3 32.9 16.6 34 11.3 NNW 19 43 10 23 1008.3 1008.0 0.0
26/02:30pm 35.6 36.8 18.2 35 11.4 N 9 17 5 9 1008.3 1008.0 0.0
26/02:00pm 36.8 37.0 19.3 36 11.7 N 17 22 9 12 1008.8 1008.5 0.0
26/01:30pm 36.0 37.8 20.3 40 10.6 N 11 19 6 10 1009.3 1009.0 0.0
26/01:00pm 35.3 36.4 20.4 41 10.0 N 15 24 8 13 1009.9 1009.6 0.0
26/12:30pm 34.5 37.7 21.2 46 9.0 NE 6 17 3 9 1010.2 1009.9 0.0
26/12:00pm 32.9 35.7 20.8 49 8.1 NNE 7 17 4 9 1010.7 1010.4 0.0
26/11:30am 32.2 34.8 22.0 55 6.9 NNE 11 19 6 10 1011.2 1010.9 0.0
26/11:00am 31.0 33.8 21.5 57 6.4 N 9 20 5 11 1011.5 1011.2 0.0
26/10:30am 30.2 32.3 21.0 58 6.2 NNE 11 17 6 9 1011.8 1011.5 0.0
26/10:00am 29.7 33.6 21.9 63 5.3 NE 4 11 2 6 1012.0 1011.7 0.0
26/09:30am 28.3 31.8 22.1 69 4.2 N 7 13 4 7 1012.2 1011.9 0.0
26/09:00am 27.5 31.8 22.0 72 3.7 NNE 2 9 1 5 1012.2 1011.9 0.0
26/08:30am 26.4 31.1 22.0 77 3.0 CALM 0 0 0 0 1012.3 1012.0 0.0
26/08:00am 25.8 30.8 22.5 82 2.2 CALM 0 0 0 0 1012.1 1011.8 0.0
26/07:30am 24.6 30.1 23.4 93 0.8 CALM 0 0 0 0 1012.2 1011.9 0.0
26/07:00am 23.7 29.2 23.4 98 0.2 CALM 0 0 0 0 1012.1 1011.8 0.0
26/06:49am 23.6 29.2 23.6 100 0.0 CALM 0 0 0 0 1012.1 1011.8 0.0
26/06:30am 23.3 28.6 23.1 99 0.1 CALM 0 0 0 0 1012.0 1011.7 0.0
26/06:03am 23.3 28.7 23.3 100 0.0 CALM 0 0 0 0 1011.8 1011.5 0.0
26/06:00am 23.3 28.6 23.1 99 0.1 CALM 0 0 0 0 1011.8 1011.5 0.0
26/05:30am 23.6 27.7 23.3 98 0.2 WNW 7 13 4 7 1011.5 1011.2 0.0
26/05:26am 23.6 27.0 23.3 98 0.2 WNW 11 13 6 7 1011.4 1011.1 0.0
26/05:00am 23.6 27.9 23.6 100 0.0 W 7 13 4 7 1011.2 1010.9 0.0
26/04:30am 23.7 29.2 23.4 98 0.2 CALM 0 0 0 0 1011.2 1010.9 0.0
26/04:00am 23.6 29.2 23.6 100 0.0 CALM 0 0 0 0 1011.3 1011.0 0.0
26/03:57am 23.6 29.2 23.6 100 0.0 CALM 0 0 0 0 1011.3 1011.0 0.0
26/03:52am 23.5 29.1 23.5 100 0.0 CALM 0 0 0 0 1011.2 1010.9 0.0
26/03:38am 23.4 28.9 23.4 100 0.0 CALM 0 0 0 0 1011.1 1010.8 0.0
26/03:30am 23.5 29.1 23.5 100 0.0 CALM 0 0 0 0 1011.1 1010.8 0.0
26/03:17am 23.3 28.7 23.3 100 0.0 CALM 0 0 0 0 1011.2 1010.9 0.0
26/03:00am 23.2 28.6 23.2 100 0.0 CALM 0 0 0 0 1011.3 1011.0 0.0
26/02:30am 23.1 28.4 23.1 100 0.0 CALM 0 0 0 0 1011.4 1011.1 0.0
26/02:27am 23.0 28.3 23.0 100 0.0 CALM 0 0 0 0 1011.4 1011.1 0.0
26/02:00am 22.9 27.8 22.4 97 0.3 CALM 0 0 0 0 1011.6 1011.3 0.0
26/01:30am 23.2 28.4 22.9 98 0.2 CALM 0 0 0 0 1011.6 1011.3 0.0
26/01:00am 23.7 28.0 22.7 94 0.7 ENE 4 9 2 5 1011.9 1011.6 0.0
26/12:30am 23.2 28.2 22.5 96 0.5 CALM 0 0 0 0 1012.0 1011.7 0.0
26/12:00am 23.6 28.7 22.6 94 0.7 CALM 0 0 0 0 1012.2 1011.9 0.0
 
Date/Time
EDT
Temp
°C
App
Temp
°C
Dew
Point
°C
Rel
Hum
%
Delta-T
°C
Wind Press
QNH
hPa
Press
MSL
hPa
Rain since
9am
mm
Dir  Spd
km/h
Gust
km/h
Spd
kts
Gust
kts
25/11:30pm 23.8 28.6 22.2 91 1.1 CALM 0 0 0 0 1012.2 1011.9 0.0
25/11:00pm 24.4 29.2 22.1 87 1.5 CALM 0 0 0 0 1012.6 1012.3 0.0
25/10:30pm 24.5 29.1 21.8 85 1.8 CALM 0 0 0 0 1012.8 1012.5 0.0
25/10:00pm 24.8 29.3 21.5 82 2.2 CALM 0 0 0 0 1013.0 1012.7 0.0
25/09:30pm 25.4 28.9 22.1 82 2.2 NNE 7 11 4 6 1012.8 1012.5 0.0
25/09:00pm 25.5 28.6 22.2 82 2.2 ENE 9 13 5 7 1012.5 1012.2 0.0
25/08:30pm 25.4 29.0 22.3 83 2.1 ENE 7 11 4 6 1012.3 1012.0 0.0
25/08:00pm 25.7 28.4 22.2 81 2.4 NE 11 17 6 9 1012.4 1012.1 0.0
25/07:30pm 25.9 28.2 22.0 79 2.6 ENE 13 19 7 10 1011.8 1011.5 0.0
25/07:00pm 26.1 27.0 21.5 76 3.1 ENE 19 28 10 15 1011.3 1011.0 0.0
25/06:30pm 26.6 27.9 21.6 74 3.3 ENE 17 22 9 12 1011.2 1010.9 0.0
25/06:00pm 27.0 27.7 21.5 72 3.7 ENE 20 28 11 15 1011.5 1011.2 0.0
25/05:30pm 27.2 28.1 21.5 71 3.8 ENE 19 28 10 15 1011.3 1011.0 0.0
25/05:00pm 27.5 27.2 21.1 68 4.3 ENE 24 33 13 18 1011.2 1010.9 0.0
25/04:30pm 28.6 29.5 20.9 63 5.1 E 17 28 9 15 1011.3 1011.0 0.0
25/04:00pm 28.3 29.1 20.6 63 5.1 E 17 22 9 12 1011.6 1011.3 0.0
25/03:30pm 28.3 29.2 20.1 61 5.4 E 15 26 8 14 1011.9 1011.6 0.0
25/03:00pm 28.8 30.0 19.1 55 6.3 NE 11 20 6 11 1012.3 1012.0 0.0
25/02:30pm 28.8 30.5 19.4 56 6.1 NW 9 17 5 9 1012.6 1012.3 0.0
25/02:00pm 29.0 30.5 19.0 54 6.5 NNW 9 15 5 8 1012.9 1012.6 0.0
25/01:30pm 28.3 30.1 18.7 56 6.2 NNW 7 13 4 7 1013.4 1013.1 0.0
25/01:00pm 28.5 29.5 19.4 57 5.9 N 13 17 7 9 1013.9 1013.6 0.0
25/12:30pm 28.5 29.7 18.3 54 6.5 NNW 9 17 5 9 1014.3 1014.0 0.0
25/12:00pm 28.6 29.1 18.4 54 6.5 ENE 13 20 7 11 1014.8 1014.5 0.0
25/11:30am 27.5 28.1 17.7 55 6.2 NNE 11 15 6 8 1015.0 1014.7 0.0
25/11:00am 26.5 28.2 18.6 62 5.0 ENE 7 11 4 6 1015.5 1015.1 0.0
25/10:30am 25.3 27.0 18.5 66 4.3 N 7 11 4 6 1015.7 1015.3 0.0
25/10:00am 25.1 27.0 19.0 69 3.9 NE 7 15 4 8 1015.6 1015.2 0.0
25/09:30am 24.6 26.2 19.2 72 3.5 ENE 9 17 5 9 1015.6 1015.2 0.0
25/09:00am 24.0 26.2 19.3 75 3.0 E 6 9 3 5 1015.3 1015.0 5.2
25/08:30am 23.2 26.2 19.2 78 2.6 E 2 6 1 3 1015.1 1014.8 5.2
25/08:00am 23.1 26.7 19.7 81 2.2 CALM 0 0 0 0 1014.8 1014.5 5.2
25/07:30am 22.7 25.9 19.7 83 1.9 ENE 2 6 1 3 1014.6 1014.3 5.2
25/07:00am 22.4 25.6 19.8 85 1.7 ENE 2 6 1 3 1014.5 1014.2 5.2
25/06:30am 22.4 24.8 19.6 84 1.8 ENE 6 11 3 6 1014.3 1014.0 5.2
25/06:00am 22.4 24.8 19.6 84 1.8 ENE 6 9 3 5 1014.0 1013.7 5.2
25/05:30am 22.4 25.2 19.6 84 1.8 SE 4 9 2 5 1013.8 1013.5 5.2
25/05:00am 22.3 24.7 19.7 85 1.7 ESE 6 11 3 6 1013.4 1013.1 5.2
25/04:30am 22.3 24.2 19.7 85 1.7 E 9 13 5 7 1013.3 1013.0 5.2
25/04:00am 22.4 24.7 19.8 85 1.7 E 7 13 4 7 1013.3 1013.0 5.2
25/03:30am 22.4 24.7 19.9 86 1.6 E 7 13 4 7 1013.2 1012.9 5.2
25/03:29am 22.4 24.7 19.9 86 1.6 E 7 13 4 7 1013.2 1012.9 5.2
25/03:00am 22.5 25.0 20.2 87 1.5 E 7 13 4 7 1013.3 1013.0 5.2
25/02:30am 22.6 26.6 20.5 88 1.4 CALM 0 0 0 0 1013.6 1013.3 5.2
25/02:00am 22.6 26.5 20.3 87 1.5 CALM 0 0 0 0 1013.8 1013.5 5.2
25/01:39am 22.6 26.6 20.5 88 1.4 CALM 0 0 0 0 1013.8 1013.5 5.2
25/01:30am 22.6 26.5 20.3 87 1.5 CALM 0 0 0 0 1013.9 1013.6 5.2
25/01:28am 22.5 26.4 20.4 88 1.4 CALM 0 0 0 0 1013.9 1013.6 5.2
25/01:00am 22.5 24.8 20.6 89 1.2 NNE 9 13 5 7 1013.9 1013.6 5.2
25/12:30am 22.4 25.0 20.5 89 1.2 ENE 7 11 4 6 1014.0 1013.7 5.2
25/12:00am 22.5 25.1 20.0 86 1.6 ENE 6 11 3 6 1014.2 1013.9 5.2
 
Date/Time
EDT
Temp
°C
App
Temp
°C
Dew
Point
°C
Rel
Hum
%
Delta-T
°C
Wind Press
QNH
hPa
Press
MSL
hPa
Rain since
9am
mm
Dir  Spd
km/h
Gust
km/h
Spd
kts
Gust
kts
24/11:30pm 22.8 25.3 19.8 83 1.9 E 6 11 3 6 1014.2 1013.9 5.0
24/11:00pm 22.9 24.8 19.7 82 2.1 E 9 15 5 8 1014.2 1013.9 5.0
24/10:30pm 22.9 24.7 19.5 81 2.2 ESE 9 17 5 9 1014.1 1013.8 5.0
24/10:00pm 23.1 25.0 19.7 81 2.2 ESE 9 15 5 8 1014.0 1013.7 5.0
24/09:30pm 23.0 24.2 19.8 82 2.1 ENE 13 17 7 9 1013.4 1013.1 5.0
24/09:00pm 22.9 24.8 19.7 82 2.1 E 9 15 5 8 1013.1 1012.8 5.0

Other formats

Comma delimited format used in spreadsheet applications
http://www.bom.gov.au/fwo/IDN60801/IDN60801.94755.axf

JavaScript Object Notation format (JSON) in row-major order
http://www.bom.gov.au/fwo/IDN60801/IDN60801.94755.json

Data quality

Most of these data are generated automatically and are frequently updated. Quality checks on data are not normally performed. It is possible for incorrect values to appear. Refer to information at About Latest Weather Observations and please check the disclaimer before using these data.